sensor_id;sensor_type;location;lat;lon;timestamp;temperature;humidity
8662;DHT22;29684;47.722;9.388;2022-12-07T00:02:07;2.40;99.90
8662;DHT22;29684;47.722;9.388;2022-12-07T00:04:51;2.40;99.90
8662;DHT22;29684;47.722;9.388;2022-12-07T00:07:35;2.40;99.90
8662;DHT22;29684;47.722;9.388;2022-12-07T00:10:19;2.50;99.90
8662;DHT22;29684;47.722;9.388;2022-12-07T00:13:04;2.50;99.90
8662;DHT22;29684;47.722;9.388;2022-12-07T00:15:48;2.40;99.90
8662;DHT22;29684;47.722;9.388;2022-12-07T00:18:32;2.30;99.90
8662;DHT22;29684;47.722;9.388;2022-12-07T00:21:19;2.40;99.90
8662;DHT22;29684;47.722;9.388;2022-12-07T00:24:05;2.40;99.90
8662;DHT22;29684;47.722;9.388;2022-12-07T00:26:49;2.50;99.90
8662;DHT22;29684;47.722;9.388;2022-12-07T00:29:33;2.40;99.90
8662;DHT22;29684;47.722;9.388;2022-12-07T00:32:17;2.40;99.90
8662;DHT22;29684;47.722;9.388;2022-12-07T00:35:01;2.40;99.90
8662;DHT22;29684;47.722;9.388;2022-12-07T00:37:45;2.40;99.90
8662;DHT22;29684;47.722;9.388;2022-12-07T00:40:29;2.40;99.90
8662;DHT22;29684;47.722;9.388;2022-12-07T00:43:13;2.40;99.90
8662;DHT22;29684;47.722;9.388;2022-12-07T00:45:57;2.40;99.90
8662;DHT22;29684;47.722;9.388;2022-12-07T00:48:41;2.40;99.90
8662;DHT22;29684;47.722;9.388;2022-12-07T00:51:26;2.50;99.90
8662;DHT22;29684;47.722;9.388;2022-12-07T00:54:10;2.40;99.90
8662;DHT22;29684;47.722;9.388;2022-12-07T00:56:54;2.50;99.90
8662;DHT22;29684;47.722;9.388;2022-12-07T00:59:38;2.50;99.90
8662;DHT22;29684;47.722;9.388;2022-12-07T01:02:22;2.50;99.90
8662;DHT22;29684;47.722;9.388;2022-12-07T01:05:07;2.40;99.90
8662;DHT22;29684;47.722;9.388;2022-12-07T01:07:51;2.50;99.90
8662;DHT22;29684;47.722;9.388;2022-12-07T01:10:35;2.20;99.90
8662;DHT22;29684;47.722;9.388;2022-12-07T01:13:19;2.30;99.90
8662;DHT22;29684;47.722;9.388;2022-12-07T01:16:05;2.30;99.90
8662;DHT22;29684;47.722;9.388;2022-12-07T01:18:52;2.30;99.90
8662;DHT22;29684;47.722;9.388;2022-12-07T01:21:38;2.20;99.90
8662;DHT22;29684;47.722;9.388;2022-12-07T01:24:22;2.30;99.90
8662;DHT22;29684;47.722;9.388;2022-12-07T01:27:07;2.30;99.90
8662;DHT22;29684;47.722;9.388;2022-12-07T01:29:51;2.20;99.90
8662;DHT22;29684;47.722;9.388;2022-12-07T01:32:35;2.10;99.90
8662;DHT22;29684;47.722;9.388;2022-12-07T01:35:19;2.20;99.90
8662;DHT22;29684;47.722;9.388;2022-12-07T01:38:03;2.30;99.90
8662;DHT22;29684;47.722;9.388;2022-12-07T01:40:54;2.30;99.90
8662;DHT22;29684;47.722;9.388;2022-12-07T01:46:53;2.30;99.90
8662;DHT22;29684;47.722;9.388;2022-12-07T01:49:48;2.30;99.90
8662;DHT22;29684;47.722;9.388;2022-12-07T01:52:35;2.30;99.90
8662;DHT22;29684;47.722;9.388;2022-12-07T01:55:21;2.30;99.90
8662;DHT22;29684;47.722;9.388;2022-12-07T01:58:06;2.30;99.90
8662;DHT22;29684;47.722;9.388;2022-12-07T02:00:50;2.30;99.90
8662;DHT22;29684;47.722;9.388;2022-12-07T02:03:39;2.30;99.90
8662;DHT22;29684;47.722;9.388;2022-12-07T02:06:24;2.20;99.90
8662;DHT22;29684;47.722;9.388;2022-12-07T02:09:09;2.20;99.90
8662;DHT22;29684;47.722;9.388;2022-12-07T02:11:55;2.20;99.90
8662;DHT22;29684;47.722;9.388;2022-12-07T02:14:40;2.30;99.90
8662;DHT22;29684;47.722;9.388;2022-12-07T02:17:51;2.20;99.90
8662;DHT22;29684;47.722;9.388;2022-12-07T02:20:47;2.30;99.90
8662;DHT22;29684;47.722;9.388;2022-12-07T02:33:08;2.30;99.90
8662;DHT22;29684;47.722;9.388;2022-12-07T02:36:02;2.30;99.90
8662;DHT22;29684;47.722;9.388;2022-12-07T02:42:00;2.30;99.90
8662;DHT22;29684;47.722;9.388;2022-12-07T02:44:46;2.30;99.90
8662;DHT22;29684;47.722;9.388;2022-12-07T02:47:31;2.30;99.90
8662;DHT22;29684;47.722;9.388;2022-12-07T02:50:20;2.30;99.90
8662;DHT22;29684;47.722;9.388;2022-12-07T02:53:05;2.30;99.90
8662;DHT22;29684;47.722;9.388;2022-12-07T02:55:49;2.20;99.90
8662;DHT22;29684;47.722;9.388;2022-12-07T03:11:31;2.30;99.90
8662;DHT22;29684;47.722;9.388;2022-12-07T03:14:24;2.30;99.90
8662;DHT22;29684;47.722;9.388;2022-12-07T03:17:16;2.30;99.90
8662;DHT22;29684;47.722;9.388;2022-12-07T03:20:04;2.20;99.90
8662;DHT22;29684;47.722;9.388;2022-12-07T03:22:50;2.30;99.90
8662;DHT22;29684;47.722;9.388;2022-12-07T03:25:43;2.30;99.90
8662;DHT22;29684;47.722;9.388;2022-12-07T03:28:35;2.20;99.90
8662;DHT22;29684;47.722;9.388;2022-12-07T03:31:29;2.30;99.90
8662;DHT22;29684;47.722;9.388;2022-12-07T03:34:50;2.30;99.90
8662;DHT22;29684;47.722;9.388;2022-12-07T03:37:45;2.40;99.90
8662;DHT22;29684;47.722;9.388;2022-12-07T03:40:52;2.50;99.90
8662;DHT22;29684;47.722;9.388;2022-12-07T03:43:39;2.40;99.90
8662;DHT22;29684;47.722;9.388;2022-12-07T03:49:27;2.40;99.90
8662;DHT22;29684;47.722;9.388;2022-12-07T03:52:24;2.30;99.90
8662;DHT22;29684;47.722;9.388;2022-12-07T03:55:25;2.30;99.90
8662;DHT22;29684;47.722;9.388;2022-12-07T03:58:14;2.40;99.90
8662;DHT22;29684;47.722;9.388;2022-12-07T04:00:59;2.80;99.90
8662;DHT22;29684;47.722;9.388;2022-12-07T04:03:43;2.30;99.90
8662;DHT22;29684;47.722;9.388;2022-12-07T04:06:27;2.40;99.90
8662;DHT22;29684;47.722;9.388;2022-12-07T04:09:11;2.50;99.90
8662;DHT22;29684;47.722;9.388;2022-12-07T04:11:55;2.50;99.90
8662;DHT22;29684;47.722;9.388;2022-12-07T04:14:39;2.50;99.90
8662;DHT22;29684;47.722;9.388;2022-12-07T04:17:23;2.40;99.90
8662;DHT22;29684;47.722;9.388;2022-12-07T04:20:08;2.40;99.90
8662;DHT22;29684;47.722;9.388;2022-12-07T04:22:52;3.40;99.90
8662;DHT22;29684;47.722;9.388;2022-12-07T04:25:36;2.00;99.90
8662;DHT22;29684;47.722;9.388;2022-12-07T04:28:20;2.10;99.90
8662;DHT22;29684;47.722;9.388;2022-12-07T04:31:04;3.20;99.90
8662;DHT22;29684;47.722;9.388;2022-12-07T04:33:49;3.00;99.90
8662;DHT22;29684;47.722;9.388;2022-12-07T04:36:33;2.30;99.90
8662;DHT22;29684;47.722;9.388;2022-12-07T04:39:24;2.10;99.90
8662;DHT22;29684;47.722;9.388;2022-12-07T04:42:08;2.20;99.90
8662;DHT22;29684;47.722;9.388;2022-12-07T04:44:53;2.30;99.90
8662;DHT22;29684;47.722;9.388;2022-12-07T04:47:37;2.20;99.90
8662;DHT22;29684;47.722;9.388;2022-12-07T04:50:21;2.30;99.90
8662;DHT22;29684;47.722;9.388;2022-12-07T04:53:05;2.20;99.90
8662;DHT22;29684;47.722;9.388;2022-12-07T04:55:49;2.30;99.90
8662;DHT22;29684;47.722;9.388;2022-12-07T04:58:33;3.30;99.90
8662;DHT22;29684;47.722;9.388;2022-12-07T05:01:18;2.30;99.90
8662;DHT22;29684;47.722;9.388;2022-12-07T05:04:03;2.20;99.90
8662;DHT22;29684;47.722;9.388;2022-12-07T05:06:47;2.40;99.90
8662;DHT22;29684;47.722;9.388;2022-12-07T05:09:31;3.80;99.90
8662;DHT22;29684;47.722;9.388;2022-12-07T05:12:15;2.00;99.90
8662;DHT22;29684;47.722;9.388;2022-12-07T05:15:00;2.30;99.90
8662;DHT22;29684;47.722;9.388;2022-12-07T05:17:44;2.20;99.90
8662;DHT22;29684;47.722;9.388;2022-12-07T05:20:28;2.00;99.90
8662;DHT22;29684;47.722;9.388;2022-12-07T05:23:12;2.80;99.90
8662;DHT22;29684;47.722;9.388;2022-12-07T05:25:56;2.10;99.90
8662;DHT22;29684;47.722;9.388;2022-12-07T05:28:40;1.90;99.90
8662;DHT22;29684;47.722;9.388;2022-12-07T05:31:25;2.30;99.90
8662;DHT22;29684;47.722;9.388;2022-12-07T05:34:10;2.10;99.90
8662;DHT22;29684;47.722;9.388;2022-12-07T05:36:54;1.90;99.90
8662;DHT22;29684;47.722;9.388;2022-12-07T05:39:38;1.80;99.90
8662;DHT22;29684;47.722;9.388;2022-12-07T05:42:24;3.20;99.90
8662;DHT22;29684;47.722;9.388;2022-12-07T05:45:09;1.90;99.90
8662;DHT22;29684;47.722;9.388;2022-12-07T05:47:53;2.10;99.90
8662;DHT22;29684;47.722;9.388;2022-12-07T05:50:37;2.10;99.90
8662;DHT22;29684;47.722;9.388;2022-12-07T05:53:21;2.10;99.90
8662;DHT22;29684;47.722;9.388;2022-12-07T05:56:06;1.90;99.90
8662;DHT22;29684;47.722;9.388;2022-12-07T05:58:50;2.30;99.90
8662;DHT22;29684;47.722;9.388;2022-12-07T06:01:59;2.20;99.90
8662;DHT22;29684;47.722;9.388;2022-12-07T06:04:45;2.00;99.90
8662;DHT22;29684;47.722;9.388;2022-12-07T06:07:30;1.90;99.90
8662;DHT22;29684;47.722;9.388;2022-12-07T06:10:14;3.10;99.90
8662;DHT22;29684;47.722;9.388;2022-12-07T06:12:58;2.10;99.90
8662;DHT22;29684;47.722;9.388;2022-12-07T06:15:42;1.80;99.90
8662;DHT22;29684;47.722;9.388;2022-12-07T06:18:26;2.10;99.90
8662;DHT22;29684;47.722;9.388;2022-12-07T06:21:10;1.90;99.90
8662;DHT22;29684;47.722;9.388;2022-12-07T06:23:54;1.80;99.90
8662;DHT22;29684;47.722;9.388;2022-12-07T06:26:38;2.80;99.90
8662;DHT22;29684;47.722;9.388;2022-12-07T06:29:23;2.10;99.90
8662;DHT22;29684;47.722;9.388;2022-12-07T06:32:07;2.30;99.90
8662;DHT22;29684;47.722;9.388;2022-12-07T06:34:51;2.10;99.90
8662;DHT22;29684;47.722;9.388;2022-12-07T06:37:35;2.20;99.90
8662;DHT22;29684;47.722;9.388;2022-12-07T06:40:19;2.20;99.90
8662;DHT22;29684;47.722;9.388;2022-12-07T06:43:03;2.00;99.90
8662;DHT22;29684;47.722;9.388;2022-12-07T06:45:47;2.40;99.90
8662;DHT22;29684;47.722;9.388;2022-12-07T06:48:31;2.10;99.90
8662;DHT22;29684;47.722;9.388;2022-12-07T06:51:16;2.40;99.90
8662;DHT22;29684;47.722;9.388;2022-12-07T06:54:00;2.20;99.90
8662;DHT22;29684;47.722;9.388;2022-12-07T06:56:44;2.20;99.90
8662;DHT22;29684;47.722;9.388;2022-12-07T06:59:28;2.00;99.90
8662;DHT22;29684;47.722;9.388;2022-12-07T07:02:13;2.00;99.90
8662;DHT22;29684;47.722;9.388;2022-12-07T07:04:57;2.20;99.90
8662;DHT22;29684;47.722;9.388;2022-12-07T07:07:42;2.00;99.90
8662;DHT22;29684;47.722;9.388;2022-12-07T07:10:26;2.40;99.90
8662;DHT22;29684;47.722;9.388;2022-12-07T07:13:10;1.80;99.90
8662;DHT22;29684;47.722;9.388;2022-12-07T07:18:42;2.20;99.90
8662;DHT22;29684;47.722;9.388;2022-12-07T07:21:29;2.10;99.90
8662;DHT22;29684;47.722;9.388;2022-12-07T07:24:13;2.50;99.90
8662;DHT22;29684;47.722;9.388;2022-12-07T07:26:57;2.50;99.90
8662;DHT22;29684;47.722;9.388;2022-12-07T07:29:42;2.20;99.90
8662;DHT22;29684;47.722;9.388;2022-12-07T07:32:26;2.20;99.90
8662;DHT22;29684;47.722;9.388;2022-12-07T07:35:10;1.90;99.90
8662;DHT22;29684;47.722;9.388;2022-12-07T07:37:55;2.90;99.90
8662;DHT22;29684;47.722;9.388;2022-12-07T07:40:39;2.40;99.90
8662;DHT22;29684;47.722;9.388;2022-12-07T07:43:23;2.30;99.90
8662;DHT22;29684;47.722;9.388;2022-12-07T07:46:07;2.50;99.90
8662;DHT22;29684;47.722;9.388;2022-12-07T07:48:51;2.10;99.90
8662;DHT22;29684;47.722;9.388;2022-12-07T07:51:36;2.30;99.90
8662;DHT22;29684;47.722;9.388;2022-12-07T07:54:20;2.30;99.90
8662;DHT22;29684;47.722;9.388;2022-12-07T07:57:04;2.80;99.90
8662;DHT22;29684;47.722;9.388;2022-12-07T07:59:49;2.20;99.90
8662;DHT22;29684;47.722;9.388;2022-12-07T08:02:33;2.80;99.90
8662;DHT22;29684;47.722;9.388;2022-12-07T11:27:07;3.70;99.90
8662;DHT22;29684;47.722;9.388;2022-12-07T11:42:22;4.10;99.90
8662;DHT22;29684;47.722;9.388;2022-12-07T11:45:14;3.60;99.90
8662;DHT22;29684;47.722;9.388;2022-12-07T11:48:14;3.60;99.90
8662;DHT22;29684;47.722;9.388;2022-12-07T11:51:02;3.70;99.90
8662;DHT22;29684;47.722;9.388;2022-12-07T11:53:49;3.70;99.90
8662;DHT22;29684;47.722;9.388;2022-12-07T12:03:52;3.80;99.90
8662;DHT22;29684;47.722;9.388;2022-12-07T12:06:38;3.80;99.90
8662;DHT22;29684;47.722;9.388;2022-12-07T12:09:30;3.60;99.90
8662;DHT22;29684;47.722;9.388;2022-12-07T12:15:37;3.70;99.90
8662;DHT22;29684;47.722;9.388;2022-12-07T12:21:17;3.90;99.90
8662;DHT22;29684;47.722;9.388;2022-12-07T12:24:12;3.90;99.90
8662;DHT22;29684;47.722;9.388;2022-12-07T12:27:05;4.10;99.90
8662;DHT22;29684;47.722;9.388;2022-12-07T12:29:56;4.20;99.90
8662;DHT22;29684;47.722;9.388;2022-12-07T12:32:43;4.20;99.90
8662;DHT22;29684;47.722;9.388;2022-12-07T12:35:35;4.20;99.90
8662;DHT22;29684;47.722;9.388;2022-12-07T12:38:30;4.10;99.90
8662;DHT22;29684;47.722;9.388;2022-12-07T12:47:40;4.00;99.90
8662;DHT22;29684;47.722;9.388;2022-12-07T12:50:26;4.00;99.90
8662;DHT22;29684;47.722;9.388;2022-12-07T12:56:41;4.00;99.90
8662;DHT22;29684;47.722;9.388;2022-12-07T13:02:33;3.80;99.90
8662;DHT22;29684;47.722;9.388;2022-12-07T13:05:24;3.90;99.90
8662;DHT22;29684;47.722;9.388;2022-12-07T13:08:18;3.90;99.90
8662;DHT22;29684;47.722;9.388;2022-12-07T13:14:53;4.00;99.90
8662;DHT22;29684;47.722;9.388;2022-12-07T13:23:58;3.90;99.90
8662;DHT22;29684;47.722;9.388;2022-12-07T13:26:44;4.00;99.90
8662;DHT22;29684;47.722;9.388;2022-12-07T13:29:37;4.00;99.90
8662;DHT22;29684;47.722;9.388;2022-12-07T13:32:28;4.10;99.90
8662;DHT22;29684;47.722;9.388;2022-12-07T13:35:35;4.00;99.90
8662;DHT22;29684;47.722;9.388;2022-12-07T13:38:30;3.90;99.90
8662;DHT22;29684;47.722;9.388;2022-12-07T13:41:17;3.80;99.90
8662;DHT22;29684;47.722;9.388;2022-12-07T13:44:14;3.80;99.90
8662;DHT22;29684;47.722;9.388;2022-12-07T13:50:31;3.80;99.90
8662;DHT22;29684;47.722;9.388;2022-12-07T13:53:16;3.90;99.90
8662;DHT22;29684;47.722;9.388;2022-12-07T13:56:00;4.00;99.90
8662;DHT22;29684;47.722;9.388;2022-12-07T13:58:45;4.10;99.90
8662;DHT22;29684;47.722;9.388;2022-12-07T14:01:32;4.10;99.90
8662;DHT22;29684;47.722;9.388;2022-12-07T14:04:39;4.00;99.90
8662;DHT22;29684;47.722;9.388;2022-12-07T14:07:28;4.20;99.90
8662;DHT22;29684;47.722;9.388;2022-12-07T14:10:28;4.20;99.90
8662;DHT22;29684;47.722;9.388;2022-12-07T14:22:37;3.90;99.90
8662;DHT22;29684;47.722;9.388;2022-12-07T14:25:26;3.80;99.90
8662;DHT22;29684;47.722;9.388;2022-12-07T14:28:26;3.80;99.90
8662;DHT22;29684;47.722;9.388;2022-12-07T14:31:13;3.80;99.90
8662;DHT22;29684;47.722;9.388;2022-12-07T14:34:00;3.80;99.90
8662;DHT22;29684;47.722;9.388;2022-12-07T14:36:44;3.90;99.90
8662;DHT22;29684;47.722;9.388;2022-12-07T14:39:31;3.90;99.90
8662;DHT22;29684;47.722;9.388;2022-12-07T14:42:19;6.40;99.90
8662;DHT22;29684;47.722;9.388;2022-12-07T14:45:13;3.70;99.90
8662;DHT22;29684;47.722;9.388;2022-12-07T14:47:58;3.70;99.90
8662;DHT22;29684;47.722;9.388;2022-12-07T14:50:49;3.60;99.90
8662;DHT22;29684;47.722;9.388;2022-12-07T14:53:38;3.70;99.90
8662;DHT22;29684;47.722;9.388;2022-12-07T14:56:24;3.80;99.90
8662;DHT22;29684;47.722;9.388;2022-12-07T14:59:08;3.80;99.90
8662;DHT22;29684;47.722;9.388;2022-12-07T15:05:33;3.70;99.90
8662;DHT22;29684;47.722;9.388;2022-12-07T15:08:18;3.70;99.90
8662;DHT22;29684;47.722;9.388;2022-12-07T15:11:02;3.70;99.90
8662;DHT22;29684;47.722;9.388;2022-12-07T15:13:46;3.60;99.90
8662;DHT22;29684;47.722;9.388;2022-12-07T15:16:49;3.70;99.90
8662;DHT22;29684;47.722;9.388;2022-12-07T15:19:33;3.60;99.90
8662;DHT22;29684;47.722;9.388;2022-12-07T15:22:17;3.70;99.90
8662;DHT22;29684;47.722;9.388;2022-12-07T15:25:02;3.60;99.90
8662;DHT22;29684;47.722;9.388;2022-12-07T15:27:47;3.60;99.90
8662;DHT22;29684;47.722;9.388;2022-12-07T15:30:32;3.50;99.90
8662;DHT22;29684;47.722;9.388;2022-12-07T15:33:16;3.50;99.90
8662;DHT22;29684;47.722;9.388;2022-12-07T15:36:00;3.40;99.90
8662;DHT22;29684;47.722;9.388;2022-12-07T15:38:44;3.40;99.90
8662;DHT22;29684;47.722;9.388;2022-12-07T15:41:28;3.40;99.90
8662;DHT22;29684;47.722;9.388;2022-12-07T15:44:13;3.40;99.90
8662;DHT22;29684;47.722;9.388;2022-12-07T15:47:17;3.40;99.90
8662;DHT22;29684;47.722;9.388;2022-12-07T15:50:01;3.30;99.90
8662;DHT22;29684;47.722;9.388;2022-12-07T15:56:27;3.40;99.90
8662;DHT22;29684;47.722;9.388;2022-12-07T16:02:53;3.20;99.90
8662;DHT22;29684;47.722;9.388;2022-12-07T16:05:37;3.10;99.90
8662;DHT22;29684;47.722;9.388;2022-12-07T16:08:22;3.20;99.90
8662;DHT22;29684;47.722;9.388;2022-12-07T16:11:06;3.20;99.90
8662;DHT22;29684;47.722;9.388;2022-12-07T16:17:32;3.20;99.90
8662;DHT22;29684;47.722;9.388;2022-12-07T16:20:16;3.20;99.90
8662;DHT22;29684;47.722;9.388;2022-12-07T16:23:00;3.10;99.90
8662;DHT22;29684;47.722;9.388;2022-12-07T16:25:45;2.70;99.90
8662;DHT22;29684;47.722;9.388;2022-12-07T16:28:29;3.00;99.90
8662;DHT22;29684;47.722;9.388;2022-12-07T16:31:15;3.10;99.90
8662;DHT22;29684;47.722;9.388;2022-12-07T16:34:03;2.90;99.90
8662;DHT22;29684;47.722;9.388;2022-12-07T16:36:47;2.90;99.90
8662;DHT22;29684;47.722;9.388;2022-12-07T16:39:33;2.80;99.90
8662;DHT22;29684;47.722;9.388;2022-12-07T16:45:59;2.70;99.90
8662;DHT22;29684;47.722;9.388;2022-12-07T16:48:46;2.70;99.90
8662;DHT22;29684;47.722;9.388;2022-12-07T16:51:30;2.80;99.90
8662;DHT22;29684;47.722;9.388;2022-12-07T16:54:15;3.00;99.90
8662;DHT22;29684;47.722;9.388;2022-12-07T16:56:59;3.10;99.90
8662;DHT22;29684;47.722;9.388;2022-12-07T16:59:46;3.10;99.90
8662;DHT22;29684;47.722;9.388;2022-12-07T17:02:30;2.90;99.90
8662;DHT22;29684;47.722;9.388;2022-12-07T17:05:17;2.90;99.90
8662;DHT22;29684;47.722;9.388;2022-12-07T17:08:04;2.90;99.90
8662;DHT22;29684;47.722;9.388;2022-12-07T17:10:48;3.00;99.90
8662;DHT22;29684;47.722;9.388;2022-12-07T17:13:32;3.00;99.90
8662;DHT22;29684;47.722;9.388;2022-12-07T17:16:35;3.00;99.90
8662;DHT22;29684;47.722;9.388;2022-12-07T17:19:20;3.00;99.90
8662;DHT22;29684;47.722;9.388;2022-12-07T17:22:05;2.90;99.90
8662;DHT22;29684;47.722;9.388;2022-12-07T17:24:50;3.00;99.90
8662;DHT22;29684;47.722;9.388;2022-12-07T17:27:34;3.00;99.90
8662;DHT22;29684;47.722;9.388;2022-12-07T17:30:19;3.10;99.90
8662;DHT22;29684;47.722;9.388;2022-12-07T17:33:03;3.00;99.90
8662;DHT22;29684;47.722;9.388;2022-12-07T17:35:47;2.80;99.90
8662;DHT22;29684;47.722;9.388;2022-12-07T17:38:31;2.90;99.90
8662;DHT22;29684;47.722;9.388;2022-12-07T17:41:18;2.90;99.90
8662;DHT22;29684;47.722;9.388;2022-12-07T17:44:23;3.10;99.90
8662;DHT22;29684;47.722;9.388;2022-12-07T17:47:07;3.00;99.90
8662;DHT22;29684;47.722;9.388;2022-12-07T17:49:53;4.60;99.90
8662;DHT22;29684;47.722;9.388;2022-12-07T17:52:41;3.00;99.90
8662;DHT22;29684;47.722;9.388;2022-12-07T17:55:46;3.00;99.90
8662;DHT22;29684;47.722;9.388;2022-12-07T17:58:51;3.00;99.90
8662;DHT22;29684;47.722;9.388;2022-12-07T18:01:36;2.90;99.90
8662;DHT22;29684;47.722;9.388;2022-12-07T18:04:21;2.80;99.90
8662;DHT22;29684;47.722;9.388;2022-12-07T18:07:05;2.70;99.90
8662;DHT22;29684;47.722;9.388;2022-12-07T18:09:49;2.50;99.90
8662;DHT22;29684;47.722;9.388;2022-12-07T18:12:34;2.30;99.90
8662;DHT22;29684;47.722;9.388;2022-12-07T18:15:18;2.20;99.90
8662;DHT22;29684;47.722;9.388;2022-12-07T18:18:02;2.20;99.90
8662;DHT22;29684;47.722;9.388;2022-12-07T18:20:47;2.10;99.90
8662;DHT22;29684;47.722;9.388;2022-12-07T18:23:33;2.00;99.90
8662;DHT22;29684;47.722;9.388;2022-12-07T18:26:17;1.80;99.90
8662;DHT22;29684;47.722;9.388;2022-12-07T18:29:03;1.90;99.90
8662;DHT22;29684;47.722;9.388;2022-12-07T18:31:48;1.90;99.90
8662;DHT22;29684;47.722;9.388;2022-12-07T18:34:32;1.80;99.90
8662;DHT22;29684;47.722;9.388;2022-12-07T18:37:17;1.70;99.90
8662;DHT22;29684;47.722;9.388;2022-12-07T18:40:01;1.70;99.90
8662;DHT22;29684;47.722;9.388;2022-12-07T18:42:45;1.80;99.90
8662;DHT22;29684;47.722;9.388;2022-12-07T18:45:29;1.80;99.90
8662;DHT22;29684;47.722;9.388;2022-12-07T18:48:15;1.80;99.90
8662;DHT22;29684;47.722;9.388;2022-12-07T18:51:01;1.90;99.90
8662;DHT22;29684;47.722;9.388;2022-12-07T18:53:46;1.70;99.90
8662;DHT22;29684;47.722;9.388;2022-12-07T18:56:31;1.80;99.90
8662;DHT22;29684;47.722;9.388;2022-12-07T18:59:15;2.20;99.90
8662;DHT22;29684;47.722;9.388;2022-12-07T19:02:19;2.20;99.90
8662;DHT22;29684;47.722;9.388;2022-12-07T19:05:04;2.20;99.90
8662;DHT22;29684;47.722;9.388;2022-12-07T19:07:49;2.10;99.90
8662;DHT22;29684;47.722;9.388;2022-12-07T19:10:37;2.10;99.90
8662;DHT22;29684;47.722;9.388;2022-12-07T19:13:21;2.10;99.90
8662;DHT22;29684;47.722;9.388;2022-12-07T19:16:06;1.90;99.90
8662;DHT22;29684;47.722;9.388;2022-12-07T19:18:51;1.80;99.90
8662;DHT22;29684;47.722;9.388;2022-12-07T19:21:35;1.70;99.90
8662;DHT22;29684;47.722;9.388;2022-12-07T19:24:19;1.70;99.90
8662;DHT22;29684;47.722;9.388;2022-12-07T19:27:06;1.70;99.90
8662;DHT22;29684;47.722;9.388;2022-12-07T19:29:52;1.60;99.90
8662;DHT22;29684;47.722;9.388;2022-12-07T19:32:38;1.50;99.90
8662;DHT22;29684;47.722;9.388;2022-12-07T19:35:24;1.50;99.90
8662;DHT22;29684;47.722;9.388;2022-12-07T19:38:10;1.50;99.90
8662;DHT22;29684;47.722;9.388;2022-12-07T19:41:06;1.50;99.90
8662;DHT22;29684;47.722;9.388;2022-12-07T19:43:51;1.50;99.90
8662;DHT22;29684;47.722;9.388;2022-12-07T19:46:36;1.40;99.90
8662;DHT22;29684;47.722;9.388;2022-12-07T19:49:23;1.30;99.90
8662;DHT22;29684;47.722;9.388;2022-12-07T19:52:11;1.50;99.90
8662;DHT22;29684;47.722;9.388;2022-12-07T19:54:56;1.50;99.90
8662;DHT22;29684;47.722;9.388;2022-12-07T19:57:40;1.50;99.90
8662;DHT22;29684;47.722;9.388;2022-12-07T20:00:25;1.60;99.90
8662;DHT22;29684;47.722;9.388;2022-12-07T20:03:12;1.50;99.90
8662;DHT22;29684;47.722;9.388;2022-12-07T20:06:00;1.50;99.90
8662;DHT22;29684;47.722;9.388;2022-12-07T20:23:43;1.10;99.90
8662;DHT22;29684;47.722;9.388;2022-12-07T20:26:27;1.10;99.90
8662;DHT22;29684;47.722;9.388;2022-12-07T20:29:13;1.10;99.90
8662;DHT22;29684;47.722;9.388;2022-12-07T20:31:58;1.10;99.90
8662;DHT22;29684;47.722;9.388;2022-12-07T20:34:43;1.20;99.90
8662;DHT22;29684;47.722;9.388;2022-12-07T20:37:30;1.10;99.90
8662;DHT22;29684;47.722;9.388;2022-12-07T20:40:14;1.20;99.90
8662;DHT22;29684;47.722;9.388;2022-12-07T20:42:59;1.20;99.90
8662;DHT22;29684;47.722;9.388;2022-12-07T20:45:48;1.10;99.90
8662;DHT22;29684;47.722;9.388;2022-12-07T20:48:33;1.20;99.90
8662;DHT22;29684;47.722;9.388;2022-12-07T20:51:18;1.40;99.90
8662;DHT22;29684;47.722;9.388;2022-12-07T20:54:03;1.10;99.90
8662;DHT22;29684;47.722;9.388;2022-12-07T20:56:47;0.90;99.90
8662;DHT22;29684;47.722;9.388;2022-12-07T20:59:32;0.90;99.90
8662;DHT22;29684;47.722;9.388;2022-12-07T21:02:17;1.00;99.90
8662;DHT22;29684;47.722;9.388;2022-12-07T21:05:01;1.00;99.90
8662;DHT22;29684;47.722;9.388;2022-12-07T21:07:45;1.10;99.90
8662;DHT22;29684;47.722;9.388;2022-12-07T21:10:29;1.00;99.90
8662;DHT22;29684;47.722;9.388;2022-12-07T21:13:13;0.90;99.90
8662;DHT22;29684;47.722;9.388;2022-12-07T21:15:57;0.90;99.90
8662;DHT22;29684;47.722;9.388;2022-12-07T21:18:42;0.90;99.90
8662;DHT22;29684;47.722;9.388;2022-12-07T21:21:30;0.90;99.90
8662;DHT22;29684;47.722;9.388;2022-12-07T21:24:14;0.70;99.90
8662;DHT22;29684;47.722;9.388;2022-12-07T21:26:59;0.40;99.90
8662;DHT22;29684;47.722;9.388;2022-12-07T21:29:43;-1.30;99.90
8662;DHT22;29684;47.722;9.388;2022-12-07T21:32:27;0.40;99.90
8662;DHT22;29684;47.722;9.388;2022-12-07T21:35:11;0.50;99.90
8662;DHT22;29684;47.722;9.388;2022-12-07T21:37:55;0.60;99.90
8662;DHT22;29684;47.722;9.388;2022-12-07T21:40:39;0.60;99.90
8662;DHT22;29684;47.722;9.388;2022-12-07T21:43:23;0.80;99.90
8662;DHT22;29684;47.722;9.388;2022-12-07T21:46:08;0.70;99.90
8662;DHT22;29684;47.722;9.388;2022-12-07T21:48:55;0.80;99.90
8662;DHT22;29684;47.722;9.388;2022-12-07T21:51:41;0.80;99.90
8662;DHT22;29684;47.722;9.388;2022-12-07T21:54:26;0.80;99.90
8662;DHT22;29684;47.722;9.388;2022-12-07T21:57:10;1.00;99.90
8662;DHT22;29684;47.722;9.388;2022-12-07T21:59:54;1.00;99.90
8662;DHT22;29684;47.722;9.388;2022-12-07T22:02:38;0.80;99.90
8662;DHT22;29684;47.722;9.388;2022-12-07T22:05:22;0.80;99.90
8662;DHT22;29684;47.722;9.388;2022-12-07T22:08:15;0.90;99.90
8662;DHT22;29684;47.722;9.388;2022-12-07T22:11:04;0.80;99.90
8662;DHT22;29684;47.722;9.388;2022-12-07T22:13:48;0.20;99.90
8662;DHT22;29684;47.722;9.388;2022-12-07T22:17:01;0.80;99.90
8662;DHT22;29684;47.722;9.388;2022-12-07T22:19:51;0.80;99.90
8662;DHT22;29684;47.722;9.388;2022-12-07T22:22:38;0.70;99.90
8662;DHT22;29684;47.722;9.388;2022-12-07T22:25:26;0.80;99.90
8662;DHT22;29684;47.722;9.388;2022-12-07T22:28:10;0.80;99.90
8662;DHT22;29684;47.722;9.388;2022-12-07T22:31:01;0.80;99.90
8662;DHT22;29684;47.722;9.388;2022-12-07T22:33:46;0.90;99.90
8662;DHT22;29684;47.722;9.388;2022-12-07T22:36:30;1.00;99.90
8662;DHT22;29684;47.722;9.388;2022-12-07T22:39:14;1.00;99.90
8662;DHT22;29684;47.722;9.388;2022-12-07T22:41:58;1.10;99.90
8662;DHT22;29684;47.722;9.388;2022-12-07T22:44:42;1.10;99.90
8662;DHT22;29684;47.722;9.388;2022-12-07T22:47:27;1.00;99.90
8662;DHT22;29684;47.722;9.388;2022-12-07T22:50:11;1.00;99.90
8662;DHT22;29684;47.722;9.388;2022-12-07T22:52:55;1.10;99.90
8662;DHT22;29684;47.722;9.388;2022-12-07T22:55:39;1.00;99.90
8662;DHT22;29684;47.722;9.388;2022-12-07T22:58:24;1.00;99.90
8662;DHT22;29684;47.722;9.388;2022-12-07T23:01:09;1.00;99.90
8662;DHT22;29684;47.722;9.388;2022-12-07T23:03:54;1.10;99.90
8662;DHT22;29684;47.722;9.388;2022-12-07T23:06:38;1.00;99.90
8662;DHT22;29684;47.722;9.388;2022-12-07T23:09:22;0.90;99.90
8662;DHT22;29684;47.722;9.388;2022-12-07T23:12:06;0.80;99.90
8662;DHT22;29684;47.722;9.388;2022-12-07T23:15:11;0.70;99.90
8662;DHT22;29684;47.722;9.388;2022-12-07T23:17:55;0.50;99.90
8662;DHT22;29684;47.722;9.388;2022-12-07T23:20:39;0.60;99.90
8662;DHT22;29684;47.722;9.388;2022-12-07T23:23:24;0.70;99.90
8662;DHT22;29684;47.722;9.388;2022-12-07T23:26:10;0.70;99.90
8662;DHT22;29684;47.722;9.388;2022-12-07T23:28:54;0.70;99.90
8662;DHT22;29684;47.722;9.388;2022-12-07T23:31:39;0.60;99.90
8662;DHT22;29684;47.722;9.388;2022-12-07T23:34:23;0.50;99.90
8662;DHT22;29684;47.722;9.388;2022-12-07T23:37:07;0.50;99.90
8662;DHT22;29684;47.722;9.388;2022-12-07T23:39:51;0.50;99.90